Time;durP1;ratioP1;P1;durP2;ratioP2;P2;SDS_P1;SDS_P2;PMS_P1;PMS_P2;Temp;Humidity;BMP_temperature;BMP_pressure;BME280_temperature;BME280_humidity;BME280_pressure;Samples;Min_cycle;Max_cycle;Signal;HPM_P1;HPM_P2
2022/03/11 00:01:03;;;;;;;13.85;8.50;;;2.40;92.70;;;;;;5032898;28;20079;-49
2022/03/11 00:03:29;;;;;;;10.20;6.80;;;2.40;92.80;;;;;;5035064;28;20040;-49
2022/03/11 00:05:55;;;;;;;10.77;6.80;;;2.40;92.50;;;;;;5033387;28;20029;-49
2022/03/11 00:08:20;;;;;;;9.77;6.63;;;2.50;92.70;;;;;;5068866;28;20061;-49
2022/03/11 00:10:46;;;;;;;10.38;6.72;;;2.50;92.70;;;;;;5038214;28;20028;-49
2022/03/11 00:13:15;;;;;;;7.22;5.25;;;2.40;92.80;;;;;;5039723;28;20021;-50
2022/03/11 00:15:42;;;;;;;11.25;6.13;;;2.20;92.80;;;;;;5034581;28;20029;-49
2022/03/11 00:18:15;;;;;;;8.82;5.50;;;2.20;92.60;;;;;;5041042;28;20029;-50
2022/03/11 00:20:41;;;;;;;8.65;5.72;;;1.90;92.70;;;;;;5037938;28;20036;-49
2022/03/11 00:23:07;;;;;;;9.25;6.32;;;1.90;92.60;;;;;;5041302;28;20030;-49
2022/03/11 00:25:39;;;;;;;9.57;5.97;;;1.90;92.60;;;;;;5049733;28;20370;-49
2022/03/11 00:28:08;;;;;;;11.05;6.32;;;1.80;92.10;;;;;;5022468;28;20030;-49
2022/03/11 00:30:33;;;;;;;8.98;6.13;;;2.00;92.10;;;;;;5053563;28;20029;-49
2022/03/11 00:33:00;;;;;;;9.50;6.38;;;2.00;91.90;;;;;;5066836;28;20049;-51
2022/03/11 00:35:26;;;;;;;9.82;5.72;;;2.10;92.00;;;;;;5040745;28;20035;-49
2022/03/11 00:37:52;;;;;;;10.02;5.85;;;2.10;91.90;;;;;;5037852;28;20026;-49
2022/03/11 00:40:18;;;;;;;9.45;5.93;;;2.10;92.00;;;;;;5027055;28;20037;-50
2022/03/11 00:42:44;;;;;;;9.63;5.75;;;2.10;91.50;;;;;;5027715;28;20099;-49
2022/03/11 00:45:10;;;;;;;14.70;5.75;;;1.90;91.50;;;;;;5052160;28;20036;-49
2022/03/11 00:47:36;;;;;;;15.55;6.88;;;1.90;92.10;;;;;;5039719;28;20461;-49
2022/03/11 00:50:02;;;;;;;11.52;5.85;;;1.90;92.40;;;;;;5037338;28;20033;-48
2022/03/11 00:52:28;;;;;;;10.20;6.30;;;1.90;92.20;;;;;;5055076;28;20443;-49
2022/03/11 00:54:54;;;;;;;8.45;5.82;;;1.70;92.30;;;;;;5032393;28;20029;-49
2022/03/11 00:57:20;;;;;;;8.15;5.68;;;1.70;92.10;;;;;;5036990;28;20424;-49
2022/03/11 00:59:46;;;;;;;12.30;6.35;;;1.60;92.10;;;;;;5032085;28;20037;-49
2022/03/11 01:02:19;;;;;;;10.98;6.07;;;1.50;92.10;;;;;;5033197;28;20030;-49
2022/03/11 01:04:48;;;;;;;9.25;6.05;;;1.50;93.90;;;;;;5015238;28;20081;-49
2022/03/11 01:07:14;;;;;;;9.38;6.00;;;1.60;94.50;;;;;;5035029;28;20041;-49
2022/03/11 01:09:40;;;;;;;10.60;6.65;;;1.70;94.60;;;;;;5032944;28;20103;-50
2022/03/11 01:12:06;;;;;;;9.93;6.70;;;1.60;94.60;;;;;;5034902;28;20049;-49
2022/03/11 01:14:32;;;;;;;9.38;7.03;;;1.60;94.70;;;;;;5017983;28;20037;-49
2022/03/11 01:16:57;;;;;;;9.43;6.82;;;1.30;93.30;;;;;;5036716;28;20449;-49
2022/03/11 01:19:23;;;;;;;11.25;6.95;;;1.30;93.80;;;;;;5031778;28;20029;-49
2022/03/11 01:21:49;;;;;;;10.80;7.10;;;1.10;94.20;;;;;;5033375;28;20405;-49
2022/03/11 01:24:15;;;;;;;12.80;7.20;;;1.10;95.20;;;;;;5032303;28;21459;-49
2022/03/11 01:26:41;;;;;;;11.00;7.68;;;1.10;95.10;;;;;;5025980;28;20473;-49
2022/03/11 01:29:07;;;;;;;11.25;7.65;;;1.20;95.10;;;;;;5036527;28;20096;-49
2022/03/11 01:31:32;;;;;;;11.82;8.50;;;1.20;95.80;;;;;;5037455;28;20136;-49
2022/03/11 01:33:58;;;;;;;12.90;8.10;;;1.20;95.60;;;;;;5052059;28;20071;-49
2022/03/11 01:36:24;;;;;;;12.82;8.93;;;1.20;95.90;;;;;;5036093;28;20599;-49
2022/03/11 01:38:50;;;;;;;11.98;8.75;;;1.00;96.20;;;;;;5037963;28;20029;-49
2022/03/11 01:41:15;;;;;;;12.45;9.00;;;1.00;96.60;;;;;;5036316;28;20032;-49
2022/03/11 01:43:59;;;;;;;11.45;8.27;;;1.10;96.40;;;;;;5038046;28;20034;-49
2022/03/11 01:46:24;;;;;;;12.30;8.65;;;1.10;96.50;;;;;;5017371;28;20044;-49
2022/03/11 01:48:51;;;;;;;14.30;10.63;;;1.00;96.80;;;;;;5027514;28;20021;-49
2022/03/11 01:51:17;;;;;;;13.43;9.23;;;1.10;97.00;;;;;;5018136;28;20033;-49
2022/03/11 01:53:43;;;;;;;15.98;9.80;;;1.00;96.60;;;;;;5037703;28;20026;-49
2022/03/11 01:56:10;;;;;;;17.45;8.45;;;0.90;96.80;;;;;;5038761;28;20091;-49
2022/03/11 01:58:37;;;;;;;12.30;7.80;;;;;;;;;;5036911;28;20029;-49
2022/03/11 02:01:03;;;;;;;11.95;7.57;;;;;;;;;;5035771;28;20028;-50
2022/03/11 02:03:29;;;;;;;14.23;9.60;;;;;;;;;;5038337;28;20029;-49
2022/03/11 02:05:55;;;;;;;12.73;7.82;;;0.70;96.40;;;;;;5033407;28;20493;-49
2022/03/11 02:08:21;;;;;;;12.10;7.22;;;0.50;96.70;;;;;;5041077;28;20110;-48
2022/03/11 02:10:47;;;;;;;11.75;6.95;;;0.40;97.30;;;;;;5035925;28;20021;-48
2022/03/11 02:13:13;;;;;;;13.00;8.00;;;0.20;97.90;;;;;;5033239;28;20491;-49
2022/03/11 02:15:38;;;;;;;13.63;8.40;;;0.20;97.60;;;;;;5066508;28;20044;-49
2022/03/11 02:18:04;;;;;;;11.30;7.82;;;0.40;97.70;;;;;;5052359;28;20029;-49
2022/03/11 02:20:30;;;;;;;13.25;8.95;;;0.50;97.70;;;;;;5035619;28;20116;-49
2022/03/11 02:22:57;;;;;;;19.08;9.40;;;;;;;;;;5033121;28;20380;-49
2022/03/11 02:25:23;;;;;;;11.25;8.15;;;0.40;97.80;;;;;;5036075;28;20044;-49
2022/03/11 02:27:49;;;;;;;16.73;10.68;;;0.20;98.60;;;;;;5037343;28;20025;-48
2022/03/11 02:30:20;;;;;;;16.35;9.13;;;0.30;98.70;;;;;;5051501;28;20029;-48
2022/03/11 02:32:46;;;;;;;12.07;8.32;;;1.20;98.90;;;;;;5032310;28;20569;-49
2022/03/11 02:35:13;;;;;;;10.43;7.25;;;0.50;98.30;;;;;;5030201;28;20060;-49
2022/03/11 02:37:39;;;;;;;12.68;8.55;;;0.60;98.40;;;;;;5035620;28;20470;-49
2022/03/11 02:40:06;;;;;;;20.27;11.80;;;0.60;98.40;;;;;;5047574;28;20124;-49
2022/03/11 02:42:32;;;;;;;20.05;12.18;;;0.70;98.40;;;;;;5020375;28;20409;-50
2022/03/11 02:45:03;;;;;;;13.95;9.38;;;0.70;98.60;;;;;;5035581;28;20108;-50
2022/03/11 02:47:29;;;;;;;15.82;10.90;;;0.70;98.60;;;;;;5022473;28;20034;-48
2022/03/11 02:49:55;;;;;;;14.80;10.20;;;0.50;98.60;;;;;;5034862;28;20029;-49
2022/03/11 02:52:21;;;;;;;15.30;9.77;;;0.40;98.50;;;;;;5024861;28;20037;-49
2022/03/11 02:54:48;;;;;;;12.85;8.90;;;0.30;98.70;;;;;;5035265;28;20029;-49
2022/03/11 02:57:17;;;;;;;16.15;9.02;;;0.20;98.70;;;;;;5035567;28;20384;-49
2022/03/11 02:59:46;;;;;;;15.98;8.88;;;0.20;98.70;;;;;;5033636;28;20063;-49
2022/03/11 03:02:13;;;;;;;11.90;7.68;;;0.10;98.60;;;;;;5035389;28;20029;-49
2022/03/11 03:04:41;;;;;;;14.45;7.80;;;0.00;98.40;;;;;;5032265;28;20034;-49
2022/03/11 03:07:07;;;;;;;13.05;8.13;;;0.30;98.80;;;;;;5035354;28;20037;-50
2022/03/11 03:09:33;;;;;;;10.70;7.72;;;-0.10;98.90;;;;;;5081450;28;20448;-49
2022/03/11 03:12:03;;;;;;;11.35;7.18;;;-0.20;98.70;;;;;;5036045;28;20026;-49
2022/03/11 03:14:29;;;;;;;8.38;6.57;;;-0.20;99.00;;;;;;5033524;28;20048;-49
2022/03/11 03:16:54;;;;;;;13.05;6.72;;;-0.20;98.90;;;;;;5037831;28;20029;-48
2022/03/11 03:19:21;;;;;;;11.00;6.47;;;;;;;;;;5083676;28;20037;-49
2022/03/11 03:21:46;;;;;;;10.55;6.57;;;-0.20;98.70;;;;;;5043428;28;20025;-49
2022/03/11 03:24:12;;;;;;;8.85;5.75;;;-0.30;98.90;;;;;;5017164;28;20048;-48
2022/03/11 03:26:38;;;;;;;10.43;6.30;;;-0.40;98.80;;;;;;5020410;28;20441;-49
2022/03/11 03:29:03;;;;;;;13.43;6.72;;;-0.50;99.00;;;;;;5037774;28;20469;-49
2022/03/11 03:31:29;;;;;;;11.02;6.05;;;-0.70;99.30;;;;;;5063475;28;20096;-49
2022/03/11 03:33:55;;;;;;;8.30;6.03;;;-0.80;98.70;;;;;;5036688;28;20034;-49
2022/03/11 03:36:21;;;;;;;8.95;4.90;;;-0.90;99.10;;;;;;5035265;28;20087;-48
2022/03/11 03:38:47;;;;;;;9.10;5.45;;;-0.80;98.80;;;;;;5033595;28;20473;-48
2022/03/11 03:41:13;;;;;;;9.20;6.13;;;-1.00;98.90;;;;;;5067492;28;20041;-49
2022/03/11 03:43:39;;;;;;;9.95;5.88;;;-0.90;99.00;;;;;;5024495;28;20052;-48
2022/03/11 03:46:07;;;;;;;11.35;4.97;;;-0.90;98.80;;;;;;5071867;28;20053;-49
2022/03/11 03:48:33;;;;;;;7.93;5.50;;;;;;;;;;5037154;28;20493;-49
2022/03/11 03:50:59;;;;;;;9.40;6.05;;;-1.10;99.40;;;;;;5069824;28;20042;-48
2022/03/11 03:53:25;;;;;;;9.35;6.35;;;;;;;;;;5051638;28;20500;-49
2022/03/11 03:55:51;;;;;;;8.00;4.60;;;-1.10;99.90;;;;;;5046338;28;20468;-49
2022/03/11 03:58:16;;;;;;;7.57;5.82;;;-1.10;99.90;;;;;;5052520;28;20120;-48
2022/03/11 04:00:42;;;;;;;7.55;5.07;;;-1.10;99.90;;;;;;5036128;28;20477;-49
2022/03/11 04:03:08;;;;;;;8.15;5.18;;;-1.40;99.50;;;;;;5036999;28;20065;-49
2022/03/11 04:05:33;;;;;;;8.65;5.63;;;-1.40;99.50;;;;;;5035497;28;20033;-49
2022/03/11 04:07:59;;;;;;;11.10;7.15;;;-1.20;99.50;;;;;;5071409;28;20038;-49
2022/03/11 04:10:25;;;;;;;10.23;6.75;;;-1.20;99.40;;;;;;5053295;28;20037;-49
2022/03/11 04:12:51;;;;;;;14.63;7.90;;;-1.10;99.90;;;;;;5037165;28;20025;-48
2022/03/11 04:15:17;;;;;;;9.73;6.50;;;-1.00;99.80;;;;;;5088211;28;20034;-49
2022/03/11 04:17:42;;;;;;;10.57;6.75;;;-1.00;99.40;;;;;;5071732;28;20044;-49
2022/03/11 04:20:09;;;;;;;8.63;4.93;;;-1.00;99.30;;;;;;5035493;28;20025;-49
2022/03/11 04:22:45;;;;;;;8.43;4.50;;;-1.10;99.20;;;;;;5063968;28;20037;-48
2022/03/11 04:25:13;;;;;;;11.07;6.65;;;-1.10;99.50;;;;;;5039465;28;20087;-49
2022/03/11 04:27:40;;;;;;;10.95;6.18;;;-1.20;99.90;;;;;;5035929;28;20021;-48
2022/03/11 04:30:06;;;;;;;10.65;6.65;;;-1.20;99.90;;;;;;5032400;28;20129;-50
2022/03/11 04:32:32;;;;;;;10.60;6.28;;;-1.20;99.70;;;;;;5038860;28;20057;-49
2022/03/11 04:34:57;;;;;;;9.75;4.15;;;-1.30;99.90;;;;;;5037935;28;20531;-48
2022/03/11 04:37:23;;;;;;;9.48;5.90;;;-1.30;99.90;;;;;;5035044;28;20025;-49
2022/03/11 04:39:49;;;;;;;8.48;6.18;;;-1.30;99.90;;;;;;5039160;28;20538;-50
2022/03/11 04:42:15;;;;;;;7.88;4.95;;;-1.30;99.90;;;;;;5062628;28;20041;-49
2022/03/11 04:44:41;;;;;;;7.35;4.03;;;-1.40;99.90;;;;;;5087120;28;20401;-49
2022/03/11 04:47:06;;;;;;;8.18;5.35;;;-1.60;99.90;;;;;;5042715;28;20026;-48
2022/03/11 04:49:32;;;;;;;9.45;5.60;;;-1.60;99.90;;;;;;5041596;28;20468;-49
2022/03/11 04:51:58;;;;;;;9.43;6.03;;;-1.50;99.90;;;;;;5065640;28;20090;-48
2022/03/11 04:54:24;;;;;;;11.20;6.03;;;-1.40;99.90;;;;;;5034383;28;20025;-49
2022/03/11 04:56:49;;;;;;;9.50;6.43;;;-1.50;99.90;;;;;;5039630;28;20034;-48
2022/03/11 04:59:15;;;;;;;9.93;6.07;;;-1.40;99.90;;;;;;5036967;28;20021;-48
2022/03/11 05:01:41;;;;;;;10.48;6.72;;;-1.50;99.90;;;;;;5083115;28;20037;-49
2022/03/11 05:04:07;;;;;;;10.68;6.72;;;-1.40;99.90;;;;;;5067907;28;20038;-48
2022/03/11 05:06:32;;;;;;;10.77;6.88;;;-1.50;99.90;;;;;;5034843;28;20116;-48
2022/03/11 05:08:58;;;;;;;9.40;5.93;;;-1.40;99.90;;;;;;5038141;28;20382;-48
2022/03/11 05:11:24;;;;;;;10.07;6.90;;;-1.60;99.90;;;;;;5037303;28;20029;-48
2022/03/11 05:13:49;;;;;;;11.65;6.93;;;-1.60;99.90;;;;;;5034502;28;20028;-48
2022/03/11 05:16:15;;;;;;;10.00;6.60;;;-1.60;99.90;;;;;;5039458;28;20030;-48
2022/03/11 05:18:41;;;;;;;9.30;6.30;;;;;;;;;;5068159;28;20056;-48
2022/03/11 05:21:07;;;;;;;8.50;3.97;;;;;;;;;;5030076;28;20025;-49
2022/03/11 05:23:33;;;;;;;8.98;6.88;;;;;;;;;;5035818;28;20480;-48
2022/03/11 05:26:00;;;;;;;9.50;6.80;;;;;;;;;;5035342;28;20111;-49
2022/03/11 05:28:26;;;;;;;7.28;4.60;;;;;;;;;;5036176;28;20056;-48
2022/03/11 05:30:52;;;;;;;12.45;7.55;;;;;;;;;;5034996;28;20040;-48
2022/03/11 05:33:18;;;;;;;11.73;4.80;;;;;;;;;;5035822;28;20057;-48
2022/03/11 05:35:44;;;;;;;9.05;4.85;;;;;;;;;;5036691;28;20362;-48
2022/03/11 05:38:10;;;;;;;10.70;7.18;;;;;;;;;;5034012;28;20047;-48
2022/03/11 05:40:36;;;;;;;11.18;7.32;;;;;;;;;;5036841;28;20473;-48
2022/03/11 05:43:03;;;;;;;13.30;6.38;;;;;;;;;;5033794;28;20041;-49
2022/03/11 05:45:29;;;;;;;5.93;4.50;;;;;;;;;;5034593;28;20091;-48
2022/03/11 05:47:55;;;;;;;17.30;10.05;;;;;;;;;;5035604;28;20026;-48
2022/03/11 05:50:21;;;;;;;11.68;8.00;;;;;;;;;;5033675;28;20030;-48
2022/03/11 05:52:49;;;;;;;20.88;13.48;;;;;;;;;;5038283;28;20026;-49
2022/03/11 05:55:15;;;;;;;15.57;8.52;;;;;;;;;;5034481;28;20040;-49
2022/03/11 05:57:41;;;;;;;6.20;3.65;;;;;;;;;;5035014;28;20034;-49
2022/03/11 06:00:08;;;;;;;14.20;8.10;;;;;;;;;;5050117;28;20488;-49
2022/03/11 06:02:37;;;;;;;9.95;5.03;;;;;;;;;;5035086;28;20031;-48
2022/03/11 06:05:04;;;;;;;12.88;8.00;;;;;;;;;;5032916;28;20120;-48
2022/03/11 06:07:30;;;;;;;12.57;7.72;;;;;;;;;;5066170;28;20129;-48
2022/03/11 06:09:56;;;;;;;9.10;5.90;;;;;;;;;;5035113;28;20029;-48
2022/03/11 06:12:23;;;;;;;8.95;5.60;;;;;;;;;;5033764;28;20032;-49
2022/03/11 06:14:49;;;;;;;9.55;5.43;;;;;;;;;;5037594;28;20037;-48
2022/03/11 06:17:15;;;;;;;6.45;4.22;;;;;;;;;;5034513;28;20024;-49
2022/03/11 06:19:41;;;;;;;12.20;6.78;;;;;;;;;;5081198;28;20095;-48
2022/03/11 06:22:07;;;;;;;18.48;7.60;;;;;;;;;;5036230;28;20033;-48
2022/03/11 06:24:34;;;;;;;8.93;5.32;;;;;;;;;;5035806;28;20032;-48
2022/03/11 06:27:00;;;;;;;10.20;6.63;;;;;;;;;;5032785;28;20068;-48
2022/03/11 06:29:26;;;;;;;7.43;5.38;;;;;;;;;;5037701;28;20033;-48
2022/03/11 06:31:52;;;;;;;5.75;3.92;;;;;;;;;;5066419;28;20077;-48
2022/03/11 06:34:18;;;;;;;12.65;6.70;;;;;;;;;;5036964;28;20026;-49
2022/03/11 06:36:45;;;;;;;8.88;6.20;;;;;;;;;;5030066;28;20121;-47
2022/03/11 06:39:13;;;;;;;17.63;8.80;;;;;;;;;;5073690;28;20039;-47
2022/03/11 06:41:39;;;;;;;60.40;26.85;;;;;;;;;;5069195;28;20046;-48
2022/03/11 06:44:09;;;;;;;21.83;11.00;;;;;;;;;;5071492;28;20167;-49
2022/03/11 06:46:35;;;;;;;18.15;9.70;;;;;;;;;;5019972;28;20477;-48
2022/03/11 06:49:01;;;;;;;19.60;9.05;;;;;;;;;;5072659;28;20037;-48
2022/03/11 06:51:27;;;;;;;17.73;9.65;;;;;;;;;;5071689;28;20028;-48
2022/03/11 06:53:53;;;;;;;47.08;21.05;;;;;;;;;;5076942;28;20035;-48
2022/03/11 06:56:19;;;;;;;14.13;8.82;;;0.10;98.50;;;;;;5006957;28;20048;-48
2022/03/11 06:58:45;;;;;;;25.55;12.55;;;0.20;98.20;;;;;;5017871;28;20458;-48
2022/03/11 07:01:11;;;;;;;33.42;20.95;;;0.20;96.60;;;;;;5038825;28;20040;-47
2022/03/11 07:03:36;;;;;;;9.90;6.80;;;0.40;96.60;;;;;;5074312;28;20032;-48
2022/03/11 07:06:02;;;;;;;7.90;5.00;;;0.20;96.00;;;;;;5072920;28;20471;-48
2022/03/11 07:08:28;;;;;;;16.65;10.60;;;0.20;96.10;;;;;;5070973;28;20032;-48
2022/03/11 07:10:54;;;;;;;13.13;6.88;;;0.30;96.30;;;;;;5040423;28;20473;-48
2022/03/11 07:13:20;;;;;;;8.65;6.07;;;0.40;95.30;;;;;;5016984;28;20053;-49
2022/03/11 07:15:46;;;;;;;6.60;5.30;;;0.50;95.40;;;;;;5086669;28;20041;-48
2022/03/11 07:18:12;;;;;;;7.63;4.15;;;0.80;94.80;;;;;;5034577;28;20091;-48
2022/03/11 07:20:38;;;;;;;7.45;4.90;;;1.40;94.10;;;;;;5027553;28;20482;-48
2022/03/11 07:23:04;;;;;;;5.97;4.32;;;1.80;94.40;;;;;;5051003;28;20099;-48
2022/03/11 07:25:30;;;;;;;5.07;4.28;;;1.90;93.30;;;;;;5040677;28;20025;-48
2022/03/11 07:27:55;;;;;;;6.60;4.05;;;1.80;92.90;;;;;;5029317;28;20038;-48
2022/03/11 07:30:21;;;;;;;8.50;6.45;;;2.30;92.90;;;;;;5090311;28;20041;-47
2022/03/11 07:32:47;;;;;;;9.75;5.45;;;2.40;93.20;;;;;;5035271;28;20057;-48
2022/03/11 07:35:13;;;;;;;7.30;4.55;;;2.30;92.40;;;;;;5038873;28;20385;-48
2022/03/11 07:37:40;;;;;;;11.63;6.88;;;2.00;92.90;;;;;;5057201;28;20033;-48
2022/03/11 07:40:07;;;;;;;11.07;6.65;;;2.50;93.50;;;;;;5037502;28;20030;-48
2022/03/11 07:42:33;;;;;;;5.57;3.67;;;2.90;92.90;;;;;;5040234;28;20030;-48
2022/03/11 07:45:00;;;;;;;10.35;6.28;;;2.20;91.80;;;;;;5037738;28;20086;-48
2022/03/11 07:47:26;;;;;;;10.48;5.55;;;2.80;92.50;;;;;;5040295;28;20037;-48
2022/03/11 07:49:51;;;;;;;8.20;5.53;;;2.90;91.80;;;;;;5035458;28;20036;-48
2022/03/11 07:52:17;;;;;;;9.80;6.93;;;3.60;91.50;;;;;;5037734;28;20025;-48
2022/03/11 07:54:43;;;;;;;7.15;4.82;;;3.80;90.40;;;;;;5036874;28;20485;-48
2022/03/11 07:57:10;;;;;;;29.23;14.05;;;3.60;90.20;;;;;;5038179;28;20437;-48
2022/03/11 07:59:37;;;;;;;15.50;8.55;;;3.80;89.60;;;;;;5010494;28;20041;-50
2022/03/11 08:02:04;;;;;;;8.43;6.50;;;4.60;91.90;;;;;;5038122;28;20051;-48
2022/03/11 08:04:30;;;;;;;10.50;6.75;;;4.70;90.40;;;;;;5036333;28;20117;-48
2022/03/11 08:06:59;;;;;;;9.65;6.28;;;;;;;;;;5037282;28;20107;-48
2022/03/11 08:09:25;;;;;;;9.50;7.05;;;5.50;89.00;;;;;;5037217;28;20037;-48
2022/03/11 08:11:51;;;;;;;10.10;5.90;;;;;;;;;;5035071;28;20083;-48
2022/03/11 08:14:17;;;;;;;8.80;6.40;;;;;;;;;;5066602;28;20087;-49
2022/03/11 08:16:43;;;;;;;9.25;6.57;;;6.80;88.80;;;;;;5066237;28;20038;-48
2022/03/11 08:19:09;;;;;;;10.90;7.88;;;6.60;85.40;;;;;;5030619;28;20041;-48
2022/03/11 08:21:35;;;;;;;8.77;6.45;;;6.90;84.00;;;;;;5040311;28;20037;-48
2022/03/11 08:24:01;;;;;;;8.90;6.15;;;6.60;84.10;;;;;;5036797;28;20040;-49
2022/03/11 08:26:27;;;;;;;24.40;8.02;;;6.40;83.70;;;;;;5067110;28;20111;-48
2022/03/11 08:28:53;;;;;;;9.73;6.63;;;6.40;84.80;;;;;;5049193;28;20076;-48
2022/03/11 08:31:19;;;;;;;7.50;5.85;;;6.80;84.00;;;;;;5035401;28;20686;-49
2022/03/11 08:33:45;;;;;;;11.93;7.68;;;6.20;82.90;;;;;;5035322;28;20405;-49
2022/03/11 08:36:11;;;;;;;7.75;5.82;;;6.00;84.50;;;;;;5035786;28;20082;-48
2022/03/11 08:38:37;;;;;;;8.55;6.93;;;5.80;84.00;;;;;;5037633;28;20094;-48
2022/03/11 08:41:06;;;;;;;8.20;6.30;;;6.30;84.90;;;;;;5037266;28;20473;-48
2022/03/11 08:43:32;;;;;;;6.68;3.92;;;6.60;84.20;;;;;;5035178;28;20034;-45
2022/03/11 08:45:58;;;;;;;9.85;7.00;;;5.50;82.90;;;;;;5050622;28;20504;-47
2022/03/11 08:48:24;;;;;;;9.15;6.45;;;5.80;85.40;;;;;;5029266;28;20107;-48
2022/03/11 08:50:49;;;;;;;8.32;6.30;;;6.40;92.00;;;;;;5050794;28;20063;-49
2022/03/11 08:53:16;;;;;;;9.40;6.82;;;6.80;84.30;;;;;;5033942;28;20120;-48
2022/03/11 08:55:42;;;;;;;9.40;7.32;;;6.70;84.00;;;;;;5035164;28;20551;-48
2022/03/11 08:58:08;;;;;;;10.13;7.00;;;7.00;84.90;;;;;;5049603;28;20069;-48
2022/03/11 09:00:34;;;;;;;9.32;6.10;;;6.80;84.20;;;;;;5048200;28;20057;-48
2022/03/11 09:03:00;;;;;;;9.07;7.25;;;6.60;82.20;;;;;;5064913;28;20042;-49
2022/03/11 09:05:26;;;;;;;11.73;7.13;;;;;;;;;;5035235;28;20021;-49
2022/03/11 09:07:52;;;;;;;8.80;7.03;;;;;;;;;;5014860;28;20049;-48
2022/03/11 09:10:19;;;;;;;5.85;4.82;;;;;;;;;;5033003;28;20029;-48
2022/03/11 09:12:46;;;;;;;9.35;6.43;;;;;;;;;;5037737;28;20032;-48
2022/03/11 09:15:13;;;;;;;10.60;7.50;;;8.60;80.70;;;;;;5033388;28;20030;-48
2022/03/11 09:17:39;;;;;;;10.65;6.03;;;;;;;;;;5038786;28;20032;-47
2022/03/11 09:20:06;;;;;;;8.43;6.65;;;;;;;;;;5033465;28;20037;-48
2022/03/11 09:22:33;;;;;;;10.13;7.28;;;;;;;;;;5041751;28;20034;-48
2022/03/11 09:24:59;;;;;;;12.02;7.57;;;;;;;;;;5031979;28;20505;-48
2022/03/11 09:27:27;;;;;;;9.05;7.22;;;;;;;;;;5031041;28;20061;-52
2022/03/11 09:29:53;;;;;;;10.25;7.63;;;;;;;;;;5033187;28;20047;-48
2022/03/11 09:32:19;;;;;;;10.80;7.70;;;;;;;;;;5031518;28;20136;-48
2022/03/11 09:34:45;;;;;;;14.55;8.93;;;8.50;80.50;;;;;;5050431;28;20033;-48
2022/03/11 09:37:11;;;;;;;14.13;6.78;;;8.70;80.70;;;;;;5015118;28;20037;-48
2022/03/11 09:39:36;;;;;;;14.95;7.22;;;8.20;79.70;;;;;;5029533;28;20117;-49
2022/03/11 09:42:06;;;;;;;12.82;8.90;;;8.70;80.00;;;;;;5030737;28;20053;-48
2022/03/11 09:44:32;;;;;;;8.65;6.38;;;;;;;;;;5029048;28;20504;-48
2022/03/11 09:46:59;;;;;;;14.32;8.15;;;;;;;;;;5064023;28;20050;-48
2022/03/11 09:49:25;;;;;;;19.02;10.90;;;7.40;80.80;;;;;;5033295;28;20033;-48
2022/03/11 09:51:51;;;;;;;9.93;8.13;;;7.70;83.90;;;;;;5032660;28;20065;-48
2022/03/11 09:54:17;;;;;;;22.17;11.63;;;8.30;81.10;;;;;;5035626;28;20067;-48
2022/03/11 09:56:44;;;;;;;17.52;10.30;;;8.70;80.30;;;;;;5037848;28;20454;-48
2022/03/11 09:59:12;;;;;;;38.72;21.05;;;;;;;;;;5031874;28;20029;-55
2022/03/11 10:01:41;;;;;;;20.98;12.30;;;;;;;;;;4993391;28;20057;-50
2022/03/11 10:04:07;;;;;;;22.08;12.77;;;9.00;99.90;;;;;;5031127;28;20102;-49
2022/03/11 10:06:41;;;;;;;46.63;23.67;;;;;;;;;;5029817;28;20041;-50
2022/03/11 10:09:07;;;;;;;15.45;8.15;;;;;;;;;;5029650;28;20026;-49
2022/03/11 10:11:36;;;;;;;14.20;9.75;;;8.60;99.90;;;;;;5035310;28;20195;-48
2022/03/11 10:14:07;;;;;;;13.80;9.40;;;8.70;99.90;;;;;;5034113;28;20117;-48
2022/03/11 10:16:33;;;;;;;33.60;18.15;;;;;;;;;;5030266;28;20061;-48
2022/03/11 10:19:04;;;;;;;22.33;10.32;;;;;;;;;;5019189;28;20531;-47
2022/03/11 10:21:30;;;;;;;11.38;8.90;;;;;;;;;;5030835;28;20033;-47
2022/03/11 10:23:57;;;;;;;12.75;7.97;;;9.80;76.40;;;;;;5029693;28;20116;-49
2022/03/11 10:26:33;;;;;;;12.52;7.40;;;8.80;77.30;;;;;;5017921;28;20089;-48
2022/03/11 10:29:00;;;;;;;11.60;7.72;;;8.70;76.70;;;;;;5029212;28;20044;-48
2022/03/11 10:31:34;;;;;;;13.30;8.57;;;9.00;77.50;;;;;;5029554;28;20070;-48
2022/03/11 10:34:26;;;;;;;12.60;8.77;;;8.40;94.10;;;;;;5032532;28;20485;-49
2022/03/11 10:36:59;;;;;;;12.88;8.40;;;8.80;78.40;;;;;;5031936;28;20477;-47
2022/03/11 10:39:27;;;;;;;5.30;4.55;;;9.20;76.70;;;;;;5019672;28;20407;-48
2022/03/11 10:41:54;;;;;;;10.65;8.15;;;9.20;75.90;;;;;;5063177;28;20515;-49
2022/03/11 10:44:22;;;;;;;10.25;7.78;;;9.30;77.20;;;;;;5091126;28;20027;-47
2022/03/11 10:46:49;;;;;;;9.30;6.03;;;9.60;75.40;;;;;;5090465;28;20571;-48
2022/03/11 10:49:47;;;;;;;11.13;7.97;;;8.90;75.80;;;;;;5091176;28;20028;-48
2022/03/11 10:52:13;;;;;;;11.35;7.65;;;9.70;77.00;;;;;;5008153;28;20100;-49
2022/03/11 10:54:43;;;;;;;15.85;8.73;;;;;;;;;;5005690;28;20030;-48
2022/03/11 10:57:10;;;;;;;11.00;6.57;;;;;;;;;;5011244;28;20474;-49
2022/03/11 10:59:36;;;;;;;10.73;7.40;;;9.90;75.20;;;;;;5010034;28;20060;-48
2022/03/11 11:02:03;;;;;;;9.68;7.65;;;9.40;77.70;;;;;;5009863;28;20065;-51
2022/03/11 11:04:29;;;;;;;11.88;7.95;;;9.70;76.30;;;;;;4989785;28;20046;-49
2022/03/11 11:06:56;;;;;;;12.00;9.18;;;;;;;;;;5010564;28;20048;-50
2022/03/11 11:09:23;;;;;;;10.88;8.52;;;;;;;;;;5003152;28;20146;-48
2022/03/11 11:11:50;;;;;;;10.60;6.97;;;;;;;;;;5006818;28;20037;-49
2022/03/11 11:14:16;;;;;;;8.32;6.50;;;;;;;;;;4953494;28;20086;-48
2022/03/11 11:16:48;;;;;;;10.15;6.40;;;;;;;;;;4953830;28;20508;-49
2022/03/11 11:19:16;;;;;;;10.50;8.52;;;;;;;;;;4954424;28;20027;-49
2022/03/11 11:21:43;;;;;;;20.70;12.38;;;;;;;;;;4955808;28;20388;-49
2022/03/11 11:24:16;;;;;;;9.77;7.82;;;;;;;;;;4954530;28;20055;-49
2022/03/11 11:27:02;;;;;;;9.55;7.50;;;10.50;92.70;;;;;;4953435;28;20043;-49
2022/03/11 11:29:32;;;;;;;10.18;5.75;;;10.70;73.60;;;;;;5006507;28;20076;-49
2022/03/11 11:32:00;;;;;;;11.25;8.68;;;11.00;80.80;;;;;;5040189;28;20152;-49
2022/03/11 11:34:30;;;;;;;35.58;18.70;;;11.00;73.00;;;;;;5064848;28;20061;-49
2022/03/11 11:36:56;;;;;;;10.93;8.15;;;;;;;;;;5032180;28;20032;-49
2022/03/11 11:39:25;;;;;;;9.93;7.43;;;;;;;;;;5032139;28;20540;-49
2022/03/11 11:41:52;;;;;;;14.18;10.18;;;;;;;;;;5032080;28;20100;-49
2022/03/11 11:44:19;;;;;;;9.93;7.28;;;;;;;;;;5031837;28;20083;-48
2022/03/11 11:47:05;;;;;;;12.35;9.25;;;;;;;;;;5032206;28;20040;-49
2022/03/11 11:50:13;;;;;;;15.00;9.70;;;11.20;70.80;;;;;;5033628;28;20029;-49
2022/03/11 11:52:38;;;;;;;31.45;17.60;;;11.00;71.70;;;;;;5029844;28;20041;-49
2022/03/11 11:55:14;;;;;;;14.43;8.15;;;;;;;;;;5028404;28;20056;-49
2022/03/11 11:57:42;;;;;;;19.73;13.85;;;10.90;71.90;;;;;;5029148;28;20045;-49
2022/03/11 12:00:37;;;;;;;9.98;7.88;;;11.00;71.60;;;;;;5027958;28;20037;-49
2022/03/11 12:03:10;;;;;;;12.95;7.10;;;;;;;;;;5025218;28;20116;-48
2022/03/11 12:05:40;;;;;;;20.20;12.27;;;;;;;;;;5028129;28;20040;-49
2022/03/11 12:08:06;;;;;;;8.65;6.32;;;;;;;;;;5025896;28;20033;-49
2022/03/11 12:10:32;;;;;;;11.80;8.07;;;;;;;;;;5031442;28;20049;-49
2022/03/11 12:13:00;;;;;;;13.25;10.18;;;;;;;;;;5031147;28;20045;-49
2022/03/11 12:15:27;;;;;;;15.63;10.55;;;;;;;;;;5031190;28;20029;-49
2022/03/11 12:17:59;;;;;;;10.43;8.07;;;;;;;;;;5035404;28;20041;-48
2022/03/11 12:20:25;;;;;;;7.63;5.05;;;;;;;;;;5033073;28;20034;-49
2022/03/11 12:23:00;;;;;;;8.65;6.60;;;;;;;;;;5033923;28;20057;-48
2022/03/11 12:25:29;;;;;;;14.40;9.60;;;9.00;71.10;;;;;;5032971;28;20437;-49
2022/03/11 12:28:05;;;;;;;11.75;7.28;;;8.80;71.60;;;;;;5027098;28;20034;-49
2022/03/11 12:30:38;;;;;;;12.57;7.97;;;8.90;73.20;;;;;;5035202;28;20064;-49
2022/03/11 12:33:10;;;;;;;12.10;7.10;;;;;;;;;;5036842;28;20045;-49
2022/03/11 12:35:37;;;;;;;12.80;7.95;;;10.00;73.10;;;;;;5037674;28;20136;-48
2022/03/11 12:38:04;;;;;;;12.68;7.45;;;10.40;72.10;;;;;;5029820;28;20072;-48
2022/03/11 12:40:31;;;;;;;6.75;4.22;;;;;;;;;;5030020;28;20133;-48
2022/03/11 12:43:02;;;;;;;8.13;6.10;;;8.50;72.50;;;;;;5078941;28;20049;-50
2022/03/11 12:45:33;;;;;;;15.38;7.75;;;;;;;;;;5033552;28;20060;-49
2022/03/11 12:47:59;;;;;;;7.65;5.47;;;6.90;73.80;;;;;;5037120;28;20036;-50
2022/03/11 12:50:26;;;;;;;11.02;6.57;;;6.80;74.90;;;;;;5053160;28;20056;-49
2022/03/11 12:52:56;;;;;;;9.35;7.10;;;6.70;74.20;;;;;;5040169;28;20432;-50
2022/03/11 12:55:33;;;;;;;11.70;7.60;;;7.00;74.40;;;;;;5042733;28;20164;-51
2022/03/11 12:58:00;;;;;;;8.70;6.78;;;;;;;;;;5041833;28;20098;-50
2022/03/11 13:00:29;;;;;;;9.73;6.90;;;8.10;72.70;;;;;;5050521;28;20132;-51
2022/03/11 13:02:55;;;;;;;10.88;7.45;;;;;;;;;;5036403;28;20040;-51
2022/03/11 13:05:26;;;;;;;8.60;6.00;;;;;;;;;;5039152;28;20103;-58
2022/03/11 13:07:53;;;;;;;10.90;6.80;;;10.00;70.70;;;;;;5036228;28;20343;-51
2022/03/11 13:10:22;;;;;;;8.95;6.53;;;10.10;71.70;;;;;;5038290;28;20086;-45
2022/03/11 13:12:50;;;;;;;8.15;5.38;;;9.70;71.30;;;;;;5035082;28;20041;-50
2022/03/11 13:15:22;;;;;;;12.57;6.60;;;8.80;71.50;;;;;;5039003;28;20033;-52
2022/03/11 13:17:53;;;;;;;11.23;5.55;;;8.30;70.90;;;;;;5035075;28;20069;-52